Neillsville, WI (54456)

1:25 PM CDT on April 19, 2015 (GMT -0500)
Backyard, N. Andrews Ave | | Change Station
CLOSE
Current Station
Personal Weather Station
Location: Greenwood, WI
Elevation: 1161 ft
Nearby Weather Stations

Elev 1161 ft 44.77 °N, 90.60 °W | Updated 10 seconds ago

Overcast
Overcast
58.6 °F
Feels Like 58.6 °F
N
4.3
Wind Variable Wind from NE
Gusts 4.3 mph

Today
High -- | Low -- °F
--% Chance of Precip.
Yesterday
High -- | Low -- °F
Precip. -- in
6:11 AM 7:51 PM
New Moon, 1% visible
Pressure 29.70 in
Visibility 10.0 miles
Clouds Few 12000 ft
Dew Point 44 °F
Humidity 57%
Rainfall 0.04 in
Snow Depth Not available.
UV 8 out of 12
Pollen 5.10 out of 12
Air Quality Not available.
Flu Activity Local Activity
METAR KMFI 191754Z AUTO 13009KT 10SM FEW120 16/02 A2969 RMK AO2 SLP057 T01610022 10161 20072 58031

More Conditions Fewer Conditions

Pressure 29.70 in
Visibility 10.0 miles
Clouds Few 12000 ft
Dew Point 44 °F
Humidity 57%
Rainfall 0.04 in
Snow Depth Not available.
UV 8 out of 12
Pollen 5.10 out of 12
Air Quality Not available.
Flu Activity Local Activity
METAR KMFI 191754Z AUTO 13009KT 10SM FEW120 16/02 A2969 RMK AO2 SLP057 T01610022 10161 20072 58031

More Conditions Fewer Conditions

10-Day Weather Forecast

Almanac

Astronomy

Apr. 19, 2015 Rise Set
Actual Time
Civil Twilight
Nautical Twilight
Astronomical Twilight
Moon
Length of Visible Light
Length of Day
Tomorrow will be .
, % of the Moon is Illuminated

Today's Extremes

State Highs State Lows

Community

WunderPhotos

Upload Photos

1,814,896 photos uploaded!

WunderBlogs® & News

Nearby

Air Quality

  Air Quality AQ Index Pollutant
Not available.

Snow Depth

Station Depth Elevation

Earthquake Activity

City Distance Mag. Time & Date
Minimum magnitude displayed is 2.5.

Coastal Water Temperatures

Place Temperature

Stations

Nearby Weather Stations

Station Location Temp. Windchill Dew Point Humidity Wind Precip. Elev Updated Type